sensor_id;sensor_type;location;lat;lon;timestamp;P1;durP1;ratioP1;P2;durP2;ratioP2
42332;SDS011;27984;51.476;5.702;2023-05-07T00:00:12;17.27;;;12.55;;
42332;SDS011;27984;51.476;5.702;2023-05-07T00:02:40;15.68;;;12.57;;
42332;SDS011;27984;51.476;5.702;2023-05-07T00:05:06;17.00;;;13.00;;
42332;SDS011;27984;51.476;5.702;2023-05-07T00:07:32;15.98;;;13.13;;
42332;SDS011;27984;51.476;5.702;2023-05-07T00:09:57;14.10;;;12.05;;
42332;SDS011;27984;51.476;5.702;2023-05-07T00:12:23;18.73;;;12.82;;
42332;SDS011;27984;51.476;5.702;2023-05-07T00:14:48;16.45;;;13.27;;
42332;SDS011;27984;51.476;5.702;2023-05-07T00:17:14;15.80;;;12.43;;
42332;SDS011;27984;51.476;5.702;2023-05-07T00:19:39;17.23;;;13.00;;
42332;SDS011;27984;51.476;5.702;2023-05-07T00:22:05;15.90;;;12.73;;
42332;SDS011;27984;51.476;5.702;2023-05-07T00:24:31;16.05;;;12.50;;
42332;SDS011;27984;51.476;5.702;2023-05-07T00:26:57;16.48;;;13.48;;
42332;SDS011;27984;51.476;5.702;2023-05-07T00:29:23;16.40;;;12.88;;
42332;SDS011;27984;51.476;5.702;2023-05-07T00:31:48;15.23;;;12.75;;
42332;SDS011;27984;51.476;5.702;2023-05-07T00:34:15;16.58;;;13.32;;
42332;SDS011;27984;51.476;5.702;2023-05-07T00:36:40;15.20;;;13.32;;
42332;SDS011;27984;51.476;5.702;2023-05-07T00:39:06;15.98;;;12.65;;
42332;SDS011;27984;51.476;5.702;2023-05-07T00:41:31;16.00;;;13.38;;
42332;SDS011;27984;51.476;5.702;2023-05-07T00:43:57;15.70;;;13.73;;
42332;SDS011;27984;51.476;5.702;2023-05-07T00:46:22;15.32;;;13.65;;
42332;SDS011;27984;51.476;5.702;2023-05-07T00:48:52;17.02;;;14.35;;
42332;SDS011;27984;51.476;5.702;2023-05-07T00:51:18;15.35;;;13.68;;
42332;SDS011;27984;51.476;5.702;2023-05-07T00:53:44;19.55;;;14.07;;
42332;SDS011;27984;51.476;5.702;2023-05-07T00:56:11;19.02;;;14.40;;
42332;SDS011;27984;51.476;5.702;2023-05-07T00:58:37;19.70;;;15.38;;
42332;SDS011;27984;51.476;5.702;2023-05-07T01:01:03;25.48;;;15.00;;
42332;SDS011;27984;51.476;5.702;2023-05-07T01:03:28;19.50;;;14.90;;
42332;SDS011;27984;51.476;5.702;2023-05-07T01:05:54;19.52;;;14.88;;
42332;SDS011;27984;51.476;5.702;2023-05-07T01:08:22;19.83;;;15.90;;
42332;SDS011;27984;51.476;5.702;2023-05-07T01:10:49;18.70;;;16.70;;
42332;SDS011;27984;51.476;5.702;2023-05-07T01:13:16;21.05;;;16.27;;
42332;SDS011;27984;51.476;5.702;2023-05-07T01:15:43;20.65;;;16.00;;
42332;SDS011;27984;51.476;5.702;2023-05-07T01:18:08;18.13;;;16.23;;
42332;SDS011;27984;51.476;5.702;2023-05-07T01:20:34;20.17;;;15.38;;
42332;SDS011;27984;51.476;5.702;2023-05-07T01:23:00;21.67;;;16.42;;
42332;SDS011;27984;51.476;5.702;2023-05-07T01:25:26;20.27;;;16.40;;
42332;SDS011;27984;51.476;5.702;2023-05-07T01:27:52;19.83;;;16.38;;
42332;SDS011;27984;51.476;5.702;2023-05-07T01:30:18;20.63;;;17.23;;
42332;SDS011;27984;51.476;5.702;2023-05-07T01:32:51;19.77;;;16.45;;
42332;SDS011;27984;51.476;5.702;2023-05-07T01:35:22;22.08;;;17.08;;
42332;SDS011;27984;51.476;5.702;2023-05-07T01:37:52;21.63;;;16.30;;
42332;SDS011;27984;51.476;5.702;2023-05-07T01:40:19;18.50;;;16.50;;
42332;SDS011;27984;51.476;5.702;2023-05-07T01:42:44;23.45;;;16.65;;
42332;SDS011;27984;51.476;5.702;2023-05-07T01:45:11;20.35;;;16.98;;
42332;SDS011;27984;51.476;5.702;2023-05-07T01:47:37;21.77;;;18.70;;
42332;SDS011;27984;51.476;5.702;2023-05-07T01:50:05;22.10;;;17.48;;
42332;SDS011;27984;51.476;5.702;2023-05-07T01:52:31;23.60;;;17.00;;
42332;SDS011;27984;51.476;5.702;2023-05-07T01:54:56;20.40;;;17.63;;
42332;SDS011;27984;51.476;5.702;2023-05-07T01:57:22;24.10;;;18.80;;
42332;SDS011;27984;51.476;5.702;2023-05-07T01:59:47;25.13;;;19.58;;
42332;SDS011;27984;51.476;5.702;2023-05-07T02:02:13;26.00;;;18.75;;
42332;SDS011;27984;51.476;5.702;2023-05-07T02:04:38;26.00;;;19.55;;
42332;SDS011;27984;51.476;5.702;2023-05-07T02:07:04;22.30;;;19.27;;
42332;SDS011;27984;51.476;5.702;2023-05-07T02:09:30;27.05;;;20.35;;
42332;SDS011;27984;51.476;5.702;2023-05-07T02:11:55;24.63;;;20.58;;
42332;SDS011;27984;51.476;5.702;2023-05-07T02:14:21;23.83;;;19.77;;
42332;SDS011;27984;51.476;5.702;2023-05-07T02:16:46;26.77;;;20.73;;
42332;SDS011;27984;51.476;5.702;2023-05-07T02:19:12;26.13;;;21.42;;
42332;SDS011;27984;51.476;5.702;2023-05-07T02:21:37;25.13;;;20.70;;
42332;SDS011;27984;51.476;5.702;2023-05-07T02:24:03;28.15;;;21.42;;
42332;SDS011;27984;51.476;5.702;2023-05-07T02:26:28;25.63;;;20.80;;
42332;SDS011;27984;51.476;5.702;2023-05-07T02:28:54;25.75;;;20.10;;
42332;SDS011;27984;51.476;5.702;2023-05-07T02:31:20;25.10;;;21.40;;
42332;SDS011;27984;51.476;5.702;2023-05-07T02:33:45;27.73;;;21.73;;
42332;SDS011;27984;51.476;5.702;2023-05-07T02:36:11;29.10;;;20.92;;
42332;SDS011;27984;51.476;5.702;2023-05-07T02:38:37;24.88;;;20.58;;
42332;SDS011;27984;51.476;5.702;2023-05-07T02:41:03;26.05;;;22.13;;
42332;SDS011;27984;51.476;5.702;2023-05-07T02:43:28;26.67;;;22.15;;
42332;SDS011;27984;51.476;5.702;2023-05-07T02:46:01;27.23;;;22.08;;
42332;SDS011;27984;51.476;5.702;2023-05-07T02:48:27;24.45;;;21.88;;
42332;SDS011;27984;51.476;5.702;2023-05-07T02:50:53;27.10;;;22.67;;
42332;SDS011;27984;51.476;5.702;2023-05-07T02:53:18;28.60;;;23.13;;
42332;SDS011;27984;51.476;5.702;2023-05-07T02:55:44;26.65;;;23.35;;
42332;SDS011;27984;51.476;5.702;2023-05-07T02:58:09;29.83;;;23.27;;
42332;SDS011;27984;51.476;5.702;2023-05-07T03:00:35;29.83;;;24.65;;
42332;SDS011;27984;51.476;5.702;2023-05-07T03:03:00;28.02;;;23.35;;
42332;SDS011;27984;51.476;5.702;2023-05-07T03:05:26;30.80;;;24.27;;
42332;SDS011;27984;51.476;5.702;2023-05-07T03:07:52;31.40;;;25.05;;
42332;SDS011;27984;51.476;5.702;2023-05-07T03:10:18;30.40;;;24.63;;
42332;SDS011;27984;51.476;5.702;2023-05-07T03:12:44;28.88;;;23.98;;
42332;SDS011;27984;51.476;5.702;2023-05-07T03:15:09;27.50;;;23.55;;
42332;SDS011;27984;51.476;5.702;2023-05-07T03:17:37;31.15;;;23.52;;
42332;SDS011;27984;51.476;5.702;2023-05-07T03:20:03;25.77;;;22.98;;
42332;SDS011;27984;51.476;5.702;2023-05-07T03:22:29;29.48;;;23.77;;
42332;SDS011;27984;51.476;5.702;2023-05-07T03:24:54;27.80;;;23.98;;
42332;SDS011;27984;51.476;5.702;2023-05-07T03:27:20;33.53;;;24.77;;
42332;SDS011;27984;51.476;5.702;2023-05-07T03:29:45;27.35;;;24.23;;
42332;SDS011;27984;51.476;5.702;2023-05-07T03:32:11;27.75;;;24.55;;
42332;SDS011;27984;51.476;5.702;2023-05-07T03:34:36;29.17;;;24.25;;
42332;SDS011;27984;51.476;5.702;2023-05-07T03:37:02;28.92;;;24.85;;
42332;SDS011;27984;51.476;5.702;2023-05-07T03:39:27;28.95;;;23.98;;
42332;SDS011;27984;51.476;5.702;2023-05-07T03:41:53;31.92;;;25.05;;
42332;SDS011;27984;51.476;5.702;2023-05-07T03:44:18;28.20;;;24.38;;
42332;SDS011;27984;51.476;5.702;2023-05-07T03:46:44;26.67;;;23.77;;
42332;SDS011;27984;51.476;5.702;2023-05-07T03:49:10;29.95;;;25.45;;
42332;SDS011;27984;51.476;5.702;2023-05-07T03:51:36;30.50;;;26.27;;
42332;SDS011;27984;51.476;5.702;2023-05-07T03:54:01;32.15;;;26.35;;
42332;SDS011;27984;51.476;5.702;2023-05-07T03:56:27;35.40;;;26.25;;
42332;SDS011;27984;51.476;5.702;2023-05-07T03:58:53;28.52;;;25.42;;
42332;SDS011;27984;51.476;5.702;2023-05-07T04:01:18;30.98;;;26.42;;
42332;SDS011;27984;51.476;5.702;2023-05-07T04:03:44;32.38;;;26.23;;
42332;SDS011;27984;51.476;5.702;2023-05-07T04:06:09;35.92;;;26.80;;
42332;SDS011;27984;51.476;5.702;2023-05-07T04:08:35;28.92;;;25.70;;
42332;SDS011;27984;51.476;5.702;2023-05-07T04:11:01;33.70;;;26.40;;
42332;SDS011;27984;51.476;5.702;2023-05-07T04:13:26;34.00;;;27.27;;
42332;SDS011;27984;51.476;5.702;2023-05-07T04:15:52;37.45;;;27.92;;
42332;SDS011;27984;51.476;5.702;2023-05-07T04:18:18;33.60;;;27.35;;
42332;SDS011;27984;51.476;5.702;2023-05-07T04:20:44;34.53;;;28.05;;
42332;SDS011;27984;51.476;5.702;2023-05-07T04:23:10;34.95;;;28.20;;
42332;SDS011;27984;51.476;5.702;2023-05-07T04:25:36;34.60;;;28.30;;
42332;SDS011;27984;51.476;5.702;2023-05-07T04:28:01;35.00;;;26.38;;
42332;SDS011;27984;51.476;5.702;2023-05-07T04:30:27;31.63;;;27.25;;
42332;SDS011;27984;51.476;5.702;2023-05-07T04:32:52;35.75;;;26.67;;
42332;SDS011;27984;51.476;5.702;2023-05-07T04:35:18;34.10;;;26.52;;
42332;SDS011;27984;51.476;5.702;2023-05-07T04:37:44;32.13;;;26.58;;
42332;SDS011;27984;51.476;5.702;2023-05-07T04:40:09;29.48;;;25.63;;
42332;SDS011;27984;51.476;5.702;2023-05-07T04:42:35;33.40;;;25.90;;
42332;SDS011;27984;51.476;5.702;2023-05-07T04:45:01;30.23;;;26.83;;
42332;SDS011;27984;51.476;5.702;2023-05-07T04:47:27;29.80;;;25.63;;
42332;SDS011;27984;51.476;5.702;2023-05-07T04:49:52;31.30;;;25.38;;
42332;SDS011;27984;51.476;5.702;2023-05-07T04:52:18;28.08;;;23.70;;
42332;SDS011;27984;51.476;5.702;2023-05-07T04:54:43;30.33;;;23.92;;
42332;SDS011;27984;51.476;5.702;2023-05-07T04:57:09;29.17;;;23.38;;
42332;SDS011;27984;51.476;5.702;2023-05-07T04:59:35;30.23;;;23.55;;
42332;SDS011;27984;51.476;5.702;2023-05-07T05:02:00;25.92;;;22.15;;
42332;SDS011;27984;51.476;5.702;2023-05-07T05:04:26;26.13;;;22.83;;
42332;SDS011;27984;51.476;5.702;2023-05-07T05:06:52;27.85;;;22.40;;
42332;SDS011;27984;51.476;5.702;2023-05-07T05:09:17;26.58;;;21.85;;
42332;SDS011;27984;51.476;5.702;2023-05-07T05:11:43;27.98;;;21.05;;
42332;SDS011;27984;51.476;5.702;2023-05-07T05:14:09;23.80;;;20.67;;
42332;SDS011;27984;51.476;5.702;2023-05-07T05:16:34;28.95;;;21.70;;
42332;SDS011;27984;51.476;5.702;2023-05-07T05:19:01;23.48;;;20.13;;
42332;SDS011;27984;51.476;5.702;2023-05-07T05:21:27;25.42;;;20.98;;
42332;SDS011;27984;51.476;5.702;2023-05-07T05:23:52;23.70;;;20.90;;
42332;SDS011;27984;51.476;5.702;2023-05-07T05:26:18;23.92;;;20.05;;
42332;SDS011;27984;51.476;5.702;2023-05-07T05:28:43;24.15;;;20.15;;
42332;SDS011;27984;51.476;5.702;2023-05-07T05:31:09;25.85;;;20.45;;
42332;SDS011;27984;51.476;5.702;2023-05-07T05:33:35;24.92;;;21.05;;
42332;SDS011;27984;51.476;5.702;2023-05-07T05:36:00;23.25;;;20.35;;
42332;SDS011;27984;51.476;5.702;2023-05-07T05:38:26;24.83;;;20.23;;
42332;SDS011;27984;51.476;5.702;2023-05-07T05:40:51;22.98;;;19.85;;
42332;SDS011;27984;51.476;5.702;2023-05-07T05:43:17;22.92;;;20.25;;
42332;SDS011;27984;51.476;5.702;2023-05-07T05:45:42;27.23;;;20.25;;
42332;SDS011;27984;51.476;5.702;2023-05-07T05:48:08;23.20;;;19.52;;
42332;SDS011;27984;51.476;5.702;2023-05-07T05:50:34;28.02;;;19.75;;
42332;SDS011;27984;51.476;5.702;2023-05-07T05:53:01;22.83;;;18.33;;
42332;SDS011;27984;51.476;5.702;2023-05-07T05:55:26;21.50;;;18.17;;
42332;SDS011;27984;51.476;5.702;2023-05-07T05:57:52;21.90;;;17.80;;
42332;SDS011;27984;51.476;5.702;2023-05-07T06:00:18;23.20;;;17.08;;
42332;SDS011;27984;51.476;5.702;2023-05-07T06:02:43;19.67;;;17.63;;
42332;SDS011;27984;51.476;5.702;2023-05-07T06:05:09;20.48;;;17.55;;
42332;SDS011;27984;51.476;5.702;2023-05-07T06:07:34;22.02;;;16.75;;
42332;SDS011;27984;51.476;5.702;2023-05-07T06:10:00;18.77;;;16.70;;
42332;SDS011;27984;51.476;5.702;2023-05-07T06:12:26;22.35;;;17.65;;
42332;SDS011;27984;51.476;5.702;2023-05-07T06:14:52;20.98;;;17.02;;
42332;SDS011;27984;51.476;5.702;2023-05-07T06:17:17;18.90;;;15.88;;
42332;SDS011;27984;51.476;5.702;2023-05-07T06:19:43;20.20;;;16.08;;
42332;SDS011;27984;51.476;5.702;2023-05-07T06:22:08;18.83;;;15.23;;
42332;SDS011;27984;51.476;5.702;2023-05-07T06:24:34;19.23;;;15.13;;
42332;SDS011;27984;51.476;5.702;2023-05-07T06:27:00;18.17;;;14.38;;
42332;SDS011;27984;51.476;5.702;2023-05-07T06:29:25;16.33;;;14.55;;
42332;SDS011;27984;51.476;5.702;2023-05-07T06:31:54;15.98;;;13.02;;
42332;SDS011;27984;51.476;5.702;2023-05-07T06:34:20;16.92;;;13.77;;
42332;SDS011;27984;51.476;5.702;2023-05-07T06:36:45;16.33;;;13.02;;
42332;SDS011;27984;51.476;5.702;2023-05-07T06:39:11;17.05;;;13.30;;
42332;SDS011;27984;51.476;5.702;2023-05-07T06:41:36;15.40;;;12.50;;
42332;SDS011;27984;51.476;5.702;2023-05-07T06:44:02;19.58;;;12.68;;
42332;SDS011;27984;51.476;5.702;2023-05-07T06:46:28;15.00;;;12.02;;
42332;SDS011;27984;51.476;5.702;2023-05-07T06:48:54;15.80;;;12.40;;
42332;SDS011;27984;51.476;5.702;2023-05-07T06:51:21;14.57;;;12.65;;
42332;SDS011;27984;51.476;5.702;2023-05-07T06:53:47;14.20;;;12.60;;
42332;SDS011;27984;51.476;5.702;2023-05-07T06:56:12;15.00;;;13.35;;
42332;SDS011;27984;51.476;5.702;2023-05-07T06:58:38;16.38;;;12.98;;
42332;SDS011;27984;51.476;5.702;2023-05-07T07:01:03;17.30;;;13.32;;
42332;SDS011;27984;51.476;5.702;2023-05-07T07:03:29;16.95;;;13.48;;
42332;SDS011;27984;51.476;5.702;2023-05-07T07:05:55;18.70;;;13.35;;
42332;SDS011;27984;51.476;5.702;2023-05-07T07:08:21;15.95;;;13.13;;
42332;SDS011;27984;51.476;5.702;2023-05-07T07:10:47;14.70;;;13.20;;
42332;SDS011;27984;51.476;5.702;2023-05-07T07:13:13;17.50;;;12.75;;
42332;SDS011;27984;51.476;5.702;2023-05-07T07:15:39;14.52;;;12.88;;
42332;SDS011;27984;51.476;5.702;2023-05-07T07:18:05;14.90;;;11.98;;
42332;SDS011;27984;51.476;5.702;2023-05-07T07:20:30;16.05;;;11.55;;
42332;SDS011;27984;51.476;5.702;2023-05-07T07:22:56;14.48;;;10.80;;
42332;SDS011;27984;51.476;5.702;2023-05-07T07:25:21;18.90;;;10.85;;
42332;SDS011;27984;51.476;5.702;2023-05-07T07:27:47;12.55;;;10.38;;
42332;SDS011;27984;51.476;5.702;2023-05-07T07:30:12;11.93;;;10.07;;
42332;SDS011;27984;51.476;5.702;2023-05-07T07:32:38;13.63;;;9.90;;
42332;SDS011;27984;51.476;5.702;2023-05-07T07:35:04;13.63;;;10.05;;
42332;SDS011;27984;51.476;5.702;2023-05-07T07:37:30;16.83;;;10.73;;
42332;SDS011;27984;51.476;5.702;2023-05-07T07:39:55;14.07;;;10.35;;
42332;SDS011;27984;51.476;5.702;2023-05-07T07:42:21;11.48;;;10.25;;
42332;SDS011;27984;51.476;5.702;2023-05-07T07:44:46;11.82;;;9.75;;
42332;SDS011;27984;51.476;5.702;2023-05-07T07:47:12;15.48;;;10.45;;
42332;SDS011;27984;51.476;5.702;2023-05-07T07:49:37;20.55;;;10.55;;
42332;SDS011;27984;51.476;5.702;2023-05-07T07:52:03;13.55;;;10.32;;
42332;SDS011;27984;51.476;5.702;2023-05-07T07:54:28;14.35;;;11.02;;
42332;SDS011;27984;51.476;5.702;2023-05-07T07:56:55;12.82;;;10.50;;
42332;SDS011;27984;51.476;5.702;2023-05-07T07:59:20;12.55;;;10.93;;
42332;SDS011;27984;51.476;5.702;2023-05-07T08:01:46;12.18;;;10.38;;
42332;SDS011;27984;51.476;5.702;2023-05-07T08:04:13;12.93;;;10.57;;
42332;SDS011;27984;51.476;5.702;2023-05-07T08:06:38;11.70;;;10.50;;
42332;SDS011;27984;51.476;5.702;2023-05-07T08:09:04;14.95;;;9.68;;
42332;SDS011;27984;51.476;5.702;2023-05-07T08:11:29;12.40;;;10.20;;
42332;SDS011;27984;51.476;5.702;2023-05-07T08:13:55;13.73;;;9.30;;
42332;SDS011;27984;51.476;5.702;2023-05-07T08:16:21;12.20;;;9.80;;
42332;SDS011;27984;51.476;5.702;2023-05-07T08:18:47;12.00;;;9.57;;
42332;SDS011;27984;51.476;5.702;2023-05-07T08:21:12;11.93;;;9.38;;
42332;SDS011;27984;51.476;5.702;2023-05-07T08:23:38;14.25;;;9.48;;
42332;SDS011;27984;51.476;5.702;2023-05-07T08:26:03;12.43;;;9.77;;
42332;SDS011;27984;51.476;5.702;2023-05-07T08:28:29;12.07;;;9.95;;
42332;SDS011;27984;51.476;5.702;2023-05-07T08:30:54;16.05;;;9.90;;
42332;SDS011;27984;51.476;5.702;2023-05-07T08:33:21;11.10;;;9.55;;
42332;SDS011;27984;51.476;5.702;2023-05-07T08:35:47;11.18;;;9.80;;
42332;SDS011;27984;51.476;5.702;2023-05-07T08:38:12;12.75;;;10.63;;
42332;SDS011;27984;51.476;5.702;2023-05-07T08:40:39;12.23;;;9.98;;
42332;SDS011;27984;51.476;5.702;2023-05-07T08:43:05;11.40;;;9.73;;
42332;SDS011;27984;51.476;5.702;2023-05-07T08:45:35;12.68;;;10.27;;
42332;SDS011;27984;51.476;5.702;2023-05-07T08:48:03;14.80;;;10.30;;
42332;SDS011;27984;51.476;5.702;2023-05-07T08:50:35;10.57;;;9.45;;
42332;SDS011;27984;51.476;5.702;2023-05-07T08:53:02;10.57;;;9.48;;
42332;SDS011;27984;51.476;5.702;2023-05-07T08:55:28;12.15;;;9.45;;
42332;SDS011;27984;51.476;5.702;2023-05-07T08:57:55;12.88;;;9.35;;
42332;SDS011;27984;51.476;5.702;2023-05-07T09:00:20;11.88;;;9.60;;
42332;SDS011;27984;51.476;5.702;2023-05-07T09:02:46;11.88;;;9.57;;
42332;SDS011;27984;51.476;5.702;2023-05-07T09:05:11;10.65;;;8.77;;
42332;SDS011;27984;51.476;5.702;2023-05-07T09:07:37;11.77;;;8.93;;
42332;SDS011;27984;51.476;5.702;2023-05-07T09:10:03;14.23;;;8.40;;
42332;SDS011;27984;51.476;5.702;2023-05-07T09:12:29;11.95;;;8.73;;
42332;SDS011;27984;51.476;5.702;2023-05-07T09:14:55;13.02;;;8.82;;
42332;SDS011;27984;51.476;5.702;2023-05-07T09:17:20;11.70;;;8.75;;
42332;SDS011;27984;51.476;5.702;2023-05-07T09:19:46;12.40;;;9.05;;
42332;SDS011;27984;51.476;5.702;2023-05-07T09:22:12;9.85;;;8.65;;
42332;SDS011;27984;51.476;5.702;2023-05-07T09:24:38;11.73;;;9.02;;
42332;SDS011;27984;51.476;5.702;2023-05-07T09:27:04;12.32;;;9.70;;
42332;SDS011;27984;51.476;5.702;2023-05-07T09:29:30;13.77;;;9.70;;
42332;SDS011;27984;51.476;5.702;2023-05-07T09:32:05;12.88;;;9.75;;
42332;SDS011;27984;51.476;5.702;2023-05-07T09:34:31;11.38;;;10.18;;
42332;SDS011;27984;51.476;5.702;2023-05-07T09:37:00;12.65;;;10.18;;
42332;SDS011;27984;51.476;5.702;2023-05-07T09:39:28;12.90;;;10.27;;
42332;SDS011;27984;51.476;5.702;2023-05-07T09:42:07;13.07;;;9.52;;
42332;SDS011;27984;51.476;5.702;2023-05-07T09:44:33;12.98;;;9.15;;
42332;SDS011;27984;51.476;5.702;2023-05-07T09:46:59;9.75;;;8.50;;
42332;SDS011;27984;51.476;5.702;2023-05-07T09:49:28;9.50;;;8.35;;
42332;SDS011;27984;51.476;5.702;2023-05-07T09:51:55;11.02;;;7.82;;
42332;SDS011;27984;51.476;5.702;2023-05-07T09:54:21;11.57;;;8.02;;
42332;SDS011;27984;51.476;5.702;2023-05-07T09:56:50;9.07;;;7.82;;
42332;SDS011;27984;51.476;5.702;2023-05-07T09:59:17;11.20;;;8.52;;
42332;SDS011;27984;51.476;5.702;2023-05-07T10:01:45;11.30;;;8.40;;
42332;SDS011;27984;51.476;5.702;2023-05-07T10:04:11;10.35;;;8.18;;
42332;SDS011;27984;51.476;5.702;2023-05-07T10:06:37;11.13;;;8.18;;
42332;SDS011;27984;51.476;5.702;2023-05-07T10:09:03;9.32;;;7.80;;
42332;SDS011;27984;51.476;5.702;2023-05-07T10:11:33;10.30;;;7.97;;
42332;SDS011;27984;51.476;5.702;2023-05-07T10:13:59;10.27;;;8.07;;
42332;SDS011;27984;51.476;5.702;2023-05-07T10:16:27;8.23;;;7.40;;
42332;SDS011;27984;51.476;5.702;2023-05-07T10:18:57;7.50;;;6.68;;
42332;SDS011;27984;51.476;5.702;2023-05-07T10:21:23;9.57;;;7.40;;
42332;SDS011;27984;51.476;5.702;2023-05-07T10:23:53;7.70;;;6.35;;
42332;SDS011;27984;51.476;5.702;2023-05-07T10:26:31;8.13;;;6.43;;
42332;SDS011;27984;51.476;5.702;2023-05-07T10:29:07;8.73;;;6.78;;
42332;SDS011;27984;51.476;5.702;2023-05-07T10:31:46;7.55;;;6.40;;
42332;SDS011;27984;51.476;5.702;2023-05-07T10:34:39;10.38;;;4.88;;
42332;SDS011;27984;51.476;5.702;2023-05-07T10:37:08;9.17;;;4.67;;
42332;SDS011;27984;51.476;5.702;2023-05-07T10:39:35;6.40;;;4.13;;
42332;SDS011;27984;51.476;5.702;2023-05-07T10:42:10;9.40;;;4.90;;
42332;SDS011;27984;51.476;5.702;2023-05-07T10:44:37;8.20;;;4.88;;
42332;SDS011;27984;51.476;5.702;2023-05-07T10:47:04;8.15;;;4.72;;
42332;SDS011;27984;51.476;5.702;2023-05-07T10:49:31;5.90;;;4.32;;
42332;SDS011;27984;51.476;5.702;2023-05-07T10:52:12;6.78;;;4.32;;
42332;SDS011;27984;51.476;5.702;2023-05-07T10:54:42;8.90;;;5.03;;
42332;SDS011;27984;51.476;5.702;2023-05-07T10:59:57;8.73;;;4.63;;
42332;SDS011;27984;51.476;5.702;2023-05-07T11:02:22;5.32;;;3.97;;
42332;SDS011;27984;51.476;5.702;2023-05-07T11:07:55;9.18;;;4.68;;
42332;SDS011;27984;51.476;5.702;2023-05-07T11:10:21;6.15;;;4.28;;
42332;SDS011;27984;51.476;5.702;2023-05-07T11:12:47;7.80;;;4.22;;
42332;SDS011;27984;51.476;5.702;2023-05-07T11:15:15;6.25;;;4.32;;
42332;SDS011;27984;51.476;5.702;2023-05-07T11:17:58;7.15;;;4.47;;
42332;SDS011;27984;51.476;5.702;2023-05-07T11:26:00;5.90;;;4.35;;
42332;SDS011;27984;51.476;5.702;2023-05-07T11:28:27;7.55;;;4.95;;
42332;SDS011;27984;51.476;5.702;2023-05-07T11:30:54;9.80;;;4.90;;
42332;SDS011;27984;51.476;5.702;2023-05-07T11:33:21;6.78;;;4.72;;
42332;SDS011;27984;51.476;5.702;2023-05-07T11:35:47;7.72;;;5.00;;
42332;SDS011;27984;51.476;5.702;2023-05-07T11:38:13;9.82;;;4.60;;
42332;SDS011;27984;51.476;5.702;2023-05-07T11:40:51;6.15;;;4.28;;
42332;SDS011;27984;51.476;5.702;2023-05-07T11:43:17;5.72;;;4.18;;
42332;SDS011;27984;51.476;5.702;2023-05-07T11:45:44;5.45;;;4.20;;
42332;SDS011;27984;51.476;5.702;2023-05-07T11:48:11;9.52;;;3.90;;
42332;SDS011;27984;51.476;5.702;2023-05-07T11:50:49;6.35;;;3.30;;
42332;SDS011;27984;51.476;5.702;2023-05-07T11:53:16;5.55;;;3.47;;
42332;SDS011;27984;51.476;5.702;2023-05-07T11:55:42;10.18;;;4.25;;
42332;SDS011;27984;51.476;5.702;2023-05-07T11:58:09;6.80;;;3.60;;
42332;SDS011;27984;51.476;5.702;2023-05-07T12:00:37;7.20;;;3.35;;
42332;SDS011;27984;51.476;5.702;2023-05-07T12:03:03;7.75;;;3.08;;
42332;SDS011;27984;51.476;5.702;2023-05-07T12:05:30;6.13;;;3.35;;
42332;SDS011;27984;51.476;5.702;2023-05-07T12:07:58;7.63;;;3.28;;
42332;SDS011;27984;51.476;5.702;2023-05-07T12:10:24;8.60;;;3.38;;
42332;SDS011;27984;51.476;5.702;2023-05-07T12:12:50;5.20;;;3.58;;
42332;SDS011;27984;51.476;5.702;2023-05-07T12:15:16;7.40;;;4.28;;
42332;SDS011;27984;51.476;5.702;2023-05-07T12:17:42;7.10;;;4.55;;
42332;SDS011;27984;51.476;5.702;2023-05-07T12:20:08;5.70;;;4.30;;
42332;SDS011;27984;51.476;5.702;2023-05-07T12:22:35;5.30;;;3.20;;
42332;SDS011;27984;51.476;5.702;2023-05-07T12:25:01;6.78;;;3.90;;
42332;SDS011;27984;51.476;5.702;2023-05-07T12:27:27;4.78;;;3.28;;
42332;SDS011;27984;51.476;5.702;2023-05-07T12:29:53;6.68;;;3.47;;
42332;SDS011;27984;51.476;5.702;2023-05-07T12:32:20;6.60;;;3.90;;
42332;SDS011;27984;51.476;5.702;2023-05-07T12:34:46;6.60;;;3.47;;
42332;SDS011;27984;51.476;5.702;2023-05-07T12:37:15;5.55;;;3.33;;
42332;SDS011;27984;51.476;5.702;2023-05-07T12:39:44;4.35;;;3.08;;
42332;SDS011;27984;51.476;5.702;2023-05-07T12:42:16;7.50;;;3.75;;
42332;SDS011;27984;51.476;5.702;2023-05-07T12:44:50;7.57;;;3.85;;
42332;SDS011;27984;51.476;5.702;2023-05-07T12:47:17;5.70;;;3.55;;
42332;SDS011;27984;51.476;5.702;2023-05-07T12:49:42;8.95;;;4.20;;
42332;SDS011;27984;51.476;5.702;2023-05-07T12:52:11;4.60;;;3.83;;
42332;SDS011;27984;51.476;5.702;2023-05-07T12:54:37;6.35;;;4.25;;
42332;SDS011;27984;51.476;5.702;2023-05-07T12:57:07;7.10;;;3.95;;
42332;SDS011;27984;51.476;5.702;2023-05-07T12:59:35;5.75;;;3.95;;
42332;SDS011;27984;51.476;5.702;2023-05-07T13:02:02;8.30;;;4.00;;
42332;SDS011;27984;51.476;5.702;2023-05-07T13:04:27;9.13;;;3.95;;
42332;SDS011;27984;51.476;5.702;2023-05-07T13:06:53;6.53;;;3.75;;
42332;SDS011;27984;51.476;5.702;2023-05-07T13:09:18;8.50;;;4.20;;
42332;SDS011;27984;51.476;5.702;2023-05-07T13:11:44;4.03;;;2.47;;
42332;SDS011;27984;51.476;5.702;2023-05-07T13:14:09;5.68;;;3.35;;
42332;SDS011;27984;51.476;5.702;2023-05-07T13:16:35;7.90;;;5.03;;
42332;SDS011;27984;51.476;5.702;2023-05-07T13:19:00;10.18;;;4.70;;
42332;SDS011;27984;51.476;5.702;2023-05-07T13:21:26;8.20;;;2.65;;
42332;SDS011;27984;51.476;5.702;2023-05-07T13:23:51;5.97;;;2.88;;
42332;SDS011;27984;51.476;5.702;2023-05-07T13:26:17;9.23;;;3.70;;
42332;SDS011;27984;51.476;5.702;2023-05-07T13:28:43;5.45;;;3.28;;
42332;SDS011;27984;51.476;5.702;2023-05-07T13:31:08;6.22;;;3.00;;
42332;SDS011;27984;51.476;5.702;2023-05-07T13:33:34;6.57;;;3.33;;
42332;SDS011;27984;51.476;5.702;2023-05-07T13:36:00;6.22;;;3.40;;
42332;SDS011;27984;51.476;5.702;2023-05-07T13:38:28;13.43;;;4.15;;
42332;SDS011;27984;51.476;5.702;2023-05-07T13:40:54;10.93;;;4.68;;
42332;SDS011;27984;51.476;5.702;2023-05-07T13:43:19;13.70;;;5.25;;
42332;SDS011;27984;51.476;5.702;2023-05-07T13:45:45;13.32;;;6.20;;
42332;SDS011;27984;51.476;5.702;2023-05-07T13:48:11;11.52;;;5.57;;
42332;SDS011;27984;51.476;5.702;2023-05-07T13:50:36;9.65;;;5.05;;
42332;SDS011;27984;51.476;5.702;2023-05-07T13:53:01;9.07;;;4.95;;
42332;SDS011;27984;51.476;5.702;2023-05-07T13:55:28;11.35;;;5.15;;
42332;SDS011;27984;51.476;5.702;2023-05-07T13:58:00;6.22;;;4.78;;
42332;SDS011;27984;51.476;5.702;2023-05-07T14:00:27;7.80;;;5.13;;
42332;SDS011;27984;51.476;5.702;2023-05-07T14:02:54;11.32;;;5.78;;
42332;SDS011;27984;51.476;5.702;2023-05-07T14:05:20;8.70;;;5.65;;
42332;SDS011;27984;51.476;5.702;2023-05-07T14:07:48;8.30;;;5.72;;
42332;SDS011;27984;51.476;5.702;2023-05-07T14:10:16;8.75;;;5.75;;
42332;SDS011;27984;51.476;5.702;2023-05-07T14:12:43;10.38;;;5.40;;
42332;SDS011;27984;51.476;5.702;2023-05-07T14:15:09;14.30;;;5.95;;
42332;SDS011;27984;51.476;5.702;2023-05-07T14:17:35;14.88;;;6.45;;
42332;SDS011;27984;51.476;5.702;2023-05-07T14:20:01;10.65;;;6.25;;
42332;SDS011;27984;51.476;5.702;2023-05-07T14:22:26;7.85;;;5.35;;
42332;SDS011;27984;51.476;5.702;2023-05-07T14:24:52;8.23;;;4.97;;
42332;SDS011;27984;51.476;5.702;2023-05-07T14:27:17;8.93;;;5.70;;
42332;SDS011;27984;51.476;5.702;2023-05-07T14:29:43;9.10;;;5.80;;
42332;SDS011;27984;51.476;5.702;2023-05-07T14:32:10;11.57;;;5.57;;
42332;SDS011;27984;51.476;5.702;2023-05-07T14:34:36;6.28;;;5.68;;
42332;SDS011;27984;51.476;5.702;2023-05-07T14:37:01;8.98;;;5.95;;